Time;durP1;ratioP1;P1;durP2;ratioP2;P2;SDS_P1;SDS_P2;PMS_P1;PMS_P2;Temp;Humidity;BMP_temperature;BMP_pressure;BME280_temperature;BME280_humidity;BME280_pressure;Samples;Min_cycle;Max_cycle;Signal;HPM_P1;HPM_P2
2022/11/15 04:02:20;;;;;;;74.55;26.90;;;8.00;99.90;;;;;;6177499;23;20414;-79
2022/11/15 04:04:46;;;;;;;71.00;27.38;;;8.00;99.90;;;;;;6161830;23;20012;-79
2022/11/15 04:07:12;;;;;;;79.50;28.23;;;8.00;99.90;;;;;;6186921;23;20119;-80
2022/11/15 04:10:01;;;;;;;74.60;29.55;;;8.00;99.90;;;;;;6186555;23;20397;-79
2022/11/15 04:12:30;;;;;;;78.22;29.40;;;8.00;99.90;;;;;;6186518;23;20024;-79
2022/11/15 04:15:09;;;;;;;78.40;29.02;;;8.10;99.90;;;;;;6187325;23;20020;-79
2022/11/15 04:17:35;;;;;;;91.80;31.27;;;8.10;99.90;;;;;;6186497;23;20017;-79
2022/11/15 04:25:29;;;;;;;100.65;33.58;;;8.20;99.90;;;;;;6186610;23;20044;-79
2022/11/15 04:27:55;;;;;;;91.68;32.33;;;8.20;99.90;;;;;;6186578;23;20454;-82
2022/11/15 04:30:20;;;;;;;100.13;34.20;;;8.30;99.90;;;;;;6187663;23;20019;-79
2022/11/15 04:32:46;;;;;;;89.40;32.42;;;8.30;99.90;;;;;;6186278;23;20084;-81
2022/11/15 04:35:12;;;;;;;92.45;33.88;;;8.30;99.90;;;;;;6186896;23;20009;-81
2022/11/15 04:37:37;;;;;;;91.95;34.35;;;8.30;99.90;;;;;;6186101;23;20013;-78
2022/11/15 04:40:03;;;;;;;92.72;33.30;;;8.40;99.90;;;;;;6186046;23;20009;-82
2022/11/15 04:42:29;;;;;;;102.93;35.58;;;8.40;99.90;;;;;;6186140;23;20055;-81
2022/11/15 04:44:55;;;;;;;106.28;35.85;;;8.50;99.90;;;;;;6186176;23;20048;-81
2022/11/15 04:47:21;;;;;;;102.85;35.60;;;8.50;99.90;;;;;;6187628;23;20088;-80
2022/11/15 04:49:46;;;;;;;102.90;35.35;;;8.50;99.90;;;;;;6161478;23;20044;-81
2022/11/15 04:52:12;;;;;;;112.60;37.47;;;8.60;99.90;;;;;;6186284;23;20020;-79
2022/11/15 04:54:38;;;;;;;112.05;38.17;;;8.60;99.90;;;;;;6186041;23;20334;-80
2022/11/15 04:57:03;;;;;;;117.68;38.63;;;8.60;99.90;;;;;;6186298;23;20443;-81
2022/11/15 04:59:29;;;;;;;107.22;36.47;;;8.70;99.90;;;;;;6186188;23;20434;-81
2022/11/15 05:01:54;;;;;;;114.85;37.80;;;8.70;99.90;;;;;;6185447;23;20017;-80
2022/11/15 05:04:20;;;;;;;113.20;40.28;;;8.70;99.90;;;;;;6185830;23;20355;-79
2022/11/15 05:06:51;;;;;;;120.72;39.70;;;8.80;99.90;;;;;;6186366;23;20017;-79
2022/11/15 05:09:18;;;;;;;109.55;38.17;;;8.80;99.90;;;;;;6186054;23;20458;-81
2022/11/15 05:11:43;;;;;;;120.55;39.60;;;8.80;99.90;;;;;;6186089;23;20104;-82
2022/11/15 05:14:09;;;;;;;132.23;40.75;;;8.90;99.90;;;;;;6186047;23;20455;-81
2022/11/15 05:16:35;;;;;;;137.70;41.55;;;8.90;99.90;;;;;;6186087;23;20160;-83
2022/11/15 05:19:01;;;;;;;144.85;42.65;;;8.90;99.90;;;;;;6187407;23;20016;-82
2022/11/15 05:21:27;;;;;;;123.00;43.67;;;8.90;99.90;;;;;;6185851;23;20012;-78
2022/11/15 05:23:52;;;;;;;139.63;41.72;;;9.00;99.90;;;;;;6185810;23;20308;-79
2022/11/15 05:26:18;;;;;;;128.52;42.30;;;9.00;99.90;;;;;;6185958;23;20071;-76
2022/11/15 05:28:44;;;;;;;126.72;39.63;;;9.00;99.90;;;;;;6161549;23;20328;-80
2022/11/15 05:31:15;;;;;;;130.93;42.50;;;9.10;99.90;;;;;;6185581;23;20021;-78
2022/11/15 05:33:43;;;;;;;148.45;41.80;;;9.10;99.90;;;;;;6185733;23;20024;-78
2022/11/15 05:36:17;;;;;;;123.15;40.83;;;9.10;99.90;;;;;;6185491;23;20017;-78
2022/11/15 05:38:44;;;;;;;127.50;40.53;;;9.10;99.90;;;;;;6185544;23;20024;-81
2022/11/15 05:41:10;;;;;;;137.38;42.30;;;9.20;99.90;;;;;;6185397;23;20036;-77
2022/11/15 05:43:38;;;;;;;132.40;43.22;;;9.20;99.90;;;;;;6185714;23;20036;-78
2022/11/15 05:46:04;;;;;;;134.68;43.92;;;9.20;99.90;;;;;;6184601;23;20024;-81
2022/11/15 05:48:31;;;;;;;139.40;42.47;;;9.20;99.90;;;;;;6183530;23;20466;-80
2022/11/15 05:50:57;;;;;;;130.70;41.05;;;9.20;99.90;;;;;;6183553;23;20021;-79
2022/11/15 05:53:25;;;;;;;149.68;43.67;;;9.30;99.90;;;;;;6186003;23;20059;-81
2022/11/15 05:55:51;;;;;;;145.93;42.75;;;9.30;99.90;;;;;;6186116;23;20016;-82
2022/11/15 05:58:18;;;;;;;137.25;43.25;;;9.30;99.90;;;;;;6183772;23;20401;-78
2022/11/15 06:00:47;;;;;;;138.50;44.10;;;9.30;99.90;;;;;;6185560;23;20020;-81
2022/11/15 06:03:14;;;;;;;143.45;45.22;;;9.30;99.90;;;;;;6184160;23;20040;-81
2022/11/15 06:05:40;;;;;;;132.98;42.47;;;9.40;99.90;;;;;;6186152;23;20009;-80
2022/11/15 06:08:05;;;;;;;138.15;43.75;;;9.40;99.90;;;;;;6184309;23;20028;-78
2022/11/15 06:10:32;;;;;;;134.55;43.53;;;9.40;99.90;;;;;;6158958;23;20044;-76
2022/11/15 06:13:03;;;;;;;141.90;44.03;;;9.40;99.90;;;;;;6184019;23;20442;-81
2022/11/15 06:15:29;;;;;;;137.30;43.95;;;9.40;99.90;;;;;;6184116;23;20025;-80
2022/11/15 06:17:58;;;;;;;118.93;40.00;;;9.40;99.90;;;;;;6184037;23;20224;-79
2022/11/15 06:20:25;;;;;;;127.65;42.80;;;9.50;99.90;;;;;;6184003;23;20447;-80
2022/11/15 06:22:55;;;;;;;123.75;42.65;;;9.50;99.90;;;;;;6185705;23;20013;-77
2022/11/15 06:25:21;;;;;;;114.93;40.83;;;9.50;99.90;;;;;;6185882;23;20020;-79
2022/11/15 06:27:54;;;;;;;121.03;42.00;;;9.50;99.90;;;;;;6183560;23;20048;-77
2022/11/15 06:30:21;;;;;;;118.00;41.50;;;9.60;99.90;;;;;;6183384;23;20024;-79
2022/11/15 06:32:47;;;;;;;112.95;41.42;;;9.60;99.90;;;;;;6185824;23;20093;-78
2022/11/15 06:35:13;;;;;;;111.72;39.83;;;9.60;99.90;;;;;;6184861;23;20049;-77
2022/11/15 06:37:39;;;;;;;121.72;42.15;;;9.60;99.90;;;;;;6185055;23;20012;-77
2022/11/15 06:40:06;;;;;;;114.25;39.70;;;9.60;99.90;;;;;;6158812;23;20009;-80
2022/11/15 06:42:32;;;;;;;111.57;41.75;;;9.70;99.90;;;;;;6183539;23;20024;-79
2022/11/15 06:44:57;;;;;;;102.68;38.72;;;9.70;99.90;;;;;;6183545;23;20017;-78
2022/11/15 06:47:23;;;;;;;115.68;39.33;;;9.70;99.90;;;;;;6183841;23;20088;-80
2022/11/15 06:49:48;;;;;;;113.95;39.58;;;9.80;99.90;;;;;;6183903;23;20009;-80
2022/11/15 06:52:14;;;;;;;98.25;38.75;;;9.70;99.90;;;;;;6183343;23;20017;-79
2022/11/15 06:54:40;;;;;;;112.88;40.40;;;9.80;99.90;;;;;;6183276;23;20013;-80
2022/11/15 06:57:05;;;;;;;104.10;37.53;;;9.80;99.90;;;;;;6183634;23;20017;-78
2022/11/15 06:59:31;;;;;;;100.72;38.80;;;9.80;99.90;;;;;;6183337;23;20390;-76
2022/11/15 07:01:56;;;;;;;103.25;38.65;;;9.80;99.90;;;;;;6183060;23;20021;-77
2022/11/15 07:04:22;;;;;;;112.97;40.22;;;9.80;99.90;;;;;;6183597;23;20067;-79
2022/11/15 07:06:48;;;;;;;94.15;37.33;;;9.80;99.90;;;;;;6185513;23;20009;-81
2022/11/15 07:09:14;;;;;;;100.50;39.38;;;9.90;99.90;;;;;;6183378;23;20021;-77
2022/11/15 07:11:40;;;;;;;105.05;40.13;;;9.90;99.90;;;;;;6183510;23;20017;-80
2022/11/15 07:14:05;;;;;;;96.75;37.67;;;9.90;99.90;;;;;;6183283;23;20031;-77
2022/11/15 07:16:31;;;;;;;102.80;38.25;;;9.90;99.90;;;;;;6182649;23;20083;-80
2022/11/15 07:18:57;;;;;;;88.40;35.78;;;9.90;99.90;;;;;;6182464;23;20071;-82
2022/11/15 07:21:23;;;;;;;97.03;36.72;;;9.90;99.90;;;;;;6184176;23;20502;-79
2022/11/15 07:23:48;;;;;;;89.85;37.63;;;9.90;99.90;;;;;;6183475;23;20051;-78
2022/11/15 07:26:14;;;;;;;106.20;39.80;;;10.00;99.90;;;;;;6184795;23;20023;-78
2022/11/15 07:28:40;;;;;;;88.90;36.55;;;9.90;99.90;;;;;;6184479;23;20017;-79
2022/11/15 07:31:07;;;;;;;86.28;37.22;;;10.00;99.90;;;;;;6184441;23;20048;-77
2022/11/15 07:33:34;;;;;;;89.28;35.55;;;10.00;99.90;;;;;;6184721;23;20109;-77
2022/11/15 07:36:01;;;;;;;91.15;36.17;;;10.00;99.90;;;;;;6184462;23;20052;-79
2022/11/15 07:38:27;;;;;;;79.30;34.15;;;10.00;99.90;;;;;;6184714;23;20042;-80
2022/11/15 07:41:02;;;;;;;91.20;35.85;;;10.00;99.90;;;;;;6184624;23;20088;-79
2022/11/15 07:43:29;;;;;;;81.35;34.60;;;10.00;99.90;;;;;;6184485;23;20017;-77
2022/11/15 07:45:55;;;;;;;80.13;34.90;;;10.00;99.90;;;;;;6184974;23;20013;-80
2022/11/15 07:48:22;;;;;;;94.53;36.22;;;10.00;99.90;;;;;;6185783;23;20099;-79
2022/11/15 07:50:48;;;;;;;81.55;35.47;;;10.00;99.90;;;;;;6185543;23;20024;-79
2022/11/15 07:53:14;;;;;;;89.30;36.85;;;10.00;99.90;;;;;;6161084;23;20017;-80
2022/11/15 07:55:41;;;;;;;78.22;35.67;;;10.10;99.90;;;;;;6185711;23;20451;-78
2022/11/15 07:58:10;;;;;;;83.13;36.10;;;10.10;99.90;;;;;;6187324;23;20016;-78
2022/11/15 08:00:37;;;;;;;82.75;35.50;;;10.10;99.90;;;;;;6185574;23;20016;-79
2022/11/15 08:03:08;;;;;;;87.10;36.47;;;10.10;99.90;;;;;;6185759;23;20009;-76
2022/11/15 08:05:35;;;;;;;88.97;36.92;;;10.10;99.90;;;;;;6160817;23;20020;-80
2022/11/15 08:08:01;;;;;;;79.95;35.47;;;10.10;99.90;;;;;;6185689;23;20012;-79
2022/11/15 08:10:27;;;;;;;84.80;36.65;;;10.20;99.90;;;;;;6185491;23;20441;-78
2022/11/15 08:13:04;;;;;;;70.30;32.97;;;10.20;99.90;;;;;;6185608;23;20451;-81
2022/11/15 08:15:30;;;;;;;78.43;34.92;;;10.20;99.90;;;;;;6185622;23;20024;-81
2022/11/15 08:18:05;;;;;;;80.18;35.00;;;10.30;99.90;;;;;;6185540;23;20028;-80
2022/11/15 08:20:31;;;;;;;73.40;33.25;;;10.30;99.90;;;;;;6185504;23;20491;-81
2022/11/15 08:22:59;;;;;;;73.53;33.58;;;10.30;99.90;;;;;;6185389;23;20013;-80
2022/11/15 08:25:26;;;;;;;72.00;33.78;;;10.30;99.90;;;;;;6187376;23;20009;-80
2022/11/15 08:27:56;;;;;;;68.53;32.05;;;10.40;99.90;;;;;;6187303;23;20036;-77
2022/11/15 08:30:22;;;;;;;65.32;30.77;;;10.40;99.90;;;;;;6185292;23;20020;-77
2022/11/15 08:32:49;;;;;;;68.50;32.92;;;10.40;99.90;;;;;;6187340;23;20062;-77
2022/11/15 08:35:15;;;;;;;68.72;31.63;;;10.50;99.90;;;;;;6187044;23;20009;-79
2022/11/15 08:37:40;;;;;;;69.38;32.25;;;10.50;99.90;;;;;;6187362;23;20009;-78
2022/11/15 08:40:07;;;;;;;66.97;31.20;;;10.50;99.90;;;;;;6185234;23;20108;-77
2022/11/15 08:42:33;;;;;;;64.47;30.80;;;10.60;99.90;;;;;;6185090;23;20009;-77
2022/11/15 08:44:59;;;;;;;71.10;31.27;;;10.60;99.90;;;;;;6185349;23;20044;-77
2022/11/15 08:47:24;;;;;;;66.93;30.58;;;10.60;99.90;;;;;;6185099;23;20013;-77
2022/11/15 08:49:50;;;;;;;64.90;30.20;;;10.70;99.90;;;;;;6185096;23;20020;-78
2022/11/15 08:52:16;;;;;;;59.80;30.58;;;10.60;99.90;;;;;;6184920;23;20092;-77
2022/11/15 08:54:41;;;;;;;64.90;31.38;;;10.70;99.90;;;;;;6185189;23;20024;-77
2022/11/15 08:57:09;;;;;;;67.00;31.55;;;10.70;99.90;;;;;;6184996;23;20024;-78
2022/11/15 08:59:36;;;;;;;62.53;30.63;;;10.70;99.90;;;;;;6186779;23;20335;-77
2022/11/15 09:02:01;;;;;;;63.70;29.73;;;10.70;99.90;;;;;;6184734;23;20391;-78
2022/11/15 09:04:27;;;;;;;59.25;29.80;;;10.80;99.90;;;;;;6185936;23;20013;-77
2022/11/15 09:06:53;;;;;;;58.63;30.45;;;10.80;99.90;;;;;;6183592;23;20352;-77
2022/11/15 09:09:18;;;;;;;58.53;29.98;;;10.80;99.90;;;;;;6183398;23;20021;-77
2022/11/15 09:11:44;;;;;;;61.25;29.23;;;10.90;99.90;;;;;;6185272;23;20021;-77
2022/11/15 09:14:12;;;;;;;56.40;29.23;;;10.90;99.90;;;;;;6183943;23;20044;-77
2022/11/15 09:16:38;;;;;;;54.90;28.95;;;10.90;99.90;;;;;;6158557;23;20316;-76
2022/11/15 09:19:03;;;;;;;55.47;29.00;;;10.90;99.90;;;;;;6183321;23;20021;-77
2022/11/15 09:21:30;;;;;;;62.50;29.13;;;10.90;99.90;;;;;;6184280;23;20379;-78
2022/11/15 09:23:56;;;;;;;55.67;28.27;;;11.00;99.90;;;;;;6184400;23;20013;-78
2022/11/15 09:26:21;;;;;;;57.35;29.08;;;11.00;99.90;;;;;;6183147;23;20017;-76
2022/11/15 09:28:47;;;;;;;47.42;27.08;;;11.00;99.90;;;;;;6183302;23;20017;-77
2022/11/15 09:31:13;;;;;;;54.15;28.00;;;11.10;99.90;;;;;;6183037;23;20028;-77
2022/11/15 09:33:39;;;;;;;55.53;27.23;;;11.10;99.90;;;;;;6183843;23;20013;-77
2022/11/15 09:36:07;;;;;;;59.38;29.25;;;11.10;99.90;;;;;;6183934;23;20079;-77
2022/11/15 09:38:34;;;;;;;52.40;27.77;;;11.10;99.90;;;;;;6183557;23;20057;-77
2022/11/15 09:41:15;;;;;;;55.42;27.98;;;11.20;99.90;;;;;;6183627;23;20324;-76
2022/11/15 09:43:59;;;;;;;48.90;26.73;;;11.20;99.90;;;;;;6160002;23;20010;-76
2022/11/15 09:46:25;;;;;;;50.65;26.67;;;11.20;99.90;;;;;;6184019;23;20465;-78
2022/11/15 09:48:54;;;;;;;46.78;26.45;;;11.20;99.90;;;;;;6184404;23;20013;-77
2022/11/15 09:51:34;;;;;;;48.08;26.42;;;11.20;99.90;;;;;;6185035;23;20381;-76
2022/11/15 09:54:08;;;;;;;45.63;25.38;;;11.20;99.90;;;;;;6184454;23;20013;-76
2022/11/15 09:56:42;;;;;;;50.05;25.88;;;11.30;99.90;;;;;;6184047;23;20343;-76
2022/11/15 09:59:31;;;;;;;43.03;24.92;;;11.30;99.90;;;;;;6182887;23;20021;-76
2022/11/15 10:02:34;;;;;;;41.17;23.40;;;11.30;99.90;;;;;;6184944;23;20009;-78
2022/11/15 10:05:01;;;;;;;48.75;24.45;;;11.30;99.90;;;;;;6185006;23;20068;-77
2022/11/15 10:07:34;;;;;;;47.85;23.40;;;11.40;99.90;;;;;;6184295;23;20055;-77
2022/11/15 10:10:20;;;;;;;40.92;24.10;;;11.40;99.90;;;;;;6184113;23;20013;-77
2022/11/15 10:12:49;;;;;;;47.67;22.77;;;11.40;99.90;;;;;;6184242;23;20019;-78
2022/11/15 10:15:22;;;;;;;44.40;23.25;;;11.40;99.90;;;;;;6184125;23;20427;-77
2022/11/15 10:17:53;;;;;;;37.83;20.77;;;11.50;99.90;;;;;;6184448;23;20013;-78
2022/11/15 10:20:24;;;;;;;39.00;22.42;;;11.50;99.90;;;;;;6184444;23;20020;-77
2022/11/15 10:23:00;;;;;;;38.63;20.85;;;11.50;99.90;;;;;;6158864;23;20013;-79
2022/11/15 10:25:28;;;;;;;38.78;20.85;;;11.50;99.90;;;;;;6184193;23;20024;-76
2022/11/15 10:28:13;;;;;;;36.55;21.40;;;11.50;99.90;;;;;;6183166;23;20017;-77
2022/11/15 10:30:52;;;;;;;34.35;20.20;;;11.50;99.90;;;;;;6183194;23;20052;-79
2022/11/15 10:33:33;;;;;;;33.47;19.95;;;11.50;99.90;;;;;;6183571;23;20052;-78
2022/11/15 10:36:16;;;;;;;28.65;18.10;;;11.60;99.90;;;;;;6184475;23;20096;-77
2022/11/15 10:38:51;;;;;;;35.53;18.80;;;11.60;99.90;;;;;;6184563;23;20012;-78
2022/11/15 10:41:21;;;;;;;32.38;18.38;;;11.60;99.90;;;;;;6186127;23;20104;-77
2022/11/15 10:44:16;;;;;;;31.50;18.25;;;11.60;99.90;;;;;;6184490;23;20013;-77
2022/11/15 10:46:46;;;;;;;26.00;16.88;;;11.70;99.90;;;;;;6183638;23;20016;-77
2022/11/15 10:49:20;;;;;;;26.10;16.17;;;11.70;99.90;;;;;;6182726;23;20402;-77
2022/11/15 10:51:54;;;;;;;27.77;16.50;;;11.70;99.90;;;;;;6183118;23;20023;-77
2022/11/15 10:54:23;;;;;;;24.80;15.75;;;11.70;99.90;;;;;;6183988;23;20435;-78
2022/11/15 10:56:51;;;;;;;31.80;15.77;;;11.70;99.90;;;;;;6184122;23;20024;-78
2022/11/15 10:59:28;;;;;;;24.50;14.20;;;11.70;99.90;;;;;;6183816;23;20013;-77
2022/11/15 11:01:54;;;;;;;20.85;12.70;;;11.70;99.90;;;;;;6184044;23;20017;-78
2022/11/15 11:04:20;;;;;;;23.50;13.15;;;11.70;99.90;;;;;;6184219;23;20059;-77
2022/11/15 11:06:53;;;;;;;19.63;12.43;;;11.60;99.90;;;;;;6183755;23;20024;-78
2022/11/15 11:09:34;;;;;;;18.13;11.15;;;11.70;99.90;;;;;;6186541;23;20012;-76
2022/11/15 11:12:00;;;;;;;19.77;11.27;;;11.70;99.90;;;;;;6184150;23;20374;-76
2022/11/15 11:14:34;;;;;;;18.88;11.07;;;11.70;99.90;;;;;;6185822;23;20044;-77
2022/11/15 11:17:20;;;;;;;20.40;11.48;;;11.70;99.90;;;;;;6186081;23;20400;-77
2022/11/15 11:19:58;;;;;;;16.13;10.25;;;11.70;99.90;;;;;;6183739;23;20435;-77
2022/11/15 11:22:38;;;;;;;15.73;10.70;;;11.70;99.90;;;;;;6183880;23;20462;-77
2022/11/15 11:25:25;;;;;;;18.73;10.70;;;11.70;99.90;;;;;;6183852;23;20386;-77
2022/11/15 11:28:18;;;;;;;14.02;9.50;;;11.70;99.90;;;;;;6184174;23;20009;-76
2022/11/15 11:31:00;;;;;;;17.73;10.05;;;11.70;99.90;;;;;;6159184;23;20174;-78
2022/11/15 11:33:47;;;;;;;17.55;9.88;;;11.80;99.90;;;;;;6185540;23;20427;-76
2022/11/15 11:36:53;;;;;;;15.63;9.50;;;11.80;99.90;;;;;;6186113;23;20076;-77
2022/11/15 11:39:38;;;;;;;16.40;8.60;;;11.90;99.90;;;;;;6184359;23;20092;-77
2022/11/15 11:42:11;;;;;;;17.35;8.63;;;12.10;99.90;;;;;;6184617;23;20439;-78
2022/11/15 11:44:50;;;;;;;18.67;8.40;;;12.20;99.90;;;;;;6186322;23;20016;-77
2022/11/15 11:47:23;;;;;;;17.65;9.07;;;12.30;99.90;;;;;;6184391;23;20047;-78
2022/11/15 11:50:07;;;;;;;16.58;9.13;;;12.30;99.90;;;;;;6159307;23;20012;-77
2022/11/15 11:52:41;;;;;;;13.30;8.70;;;12.30;99.90;;;;;;6185837;23;20088;-77
2022/11/15 11:55:21;;;;;;;10.10;7.15;;;12.40;99.90;;;;;;6159162;23;20020;-78
2022/11/15 11:58:06;;;;;;;9.75;6.38;;;12.60;99.90;;;;;;6185101;23;20095;-77
2022/11/15 12:00:39;;;;;;;10.87;5.83;;;12.90;99.90;;;;;;6183889;23;20009;-77
2022/11/15 12:03:19;;;;;;;12.27;6.28;;;13.10;99.90;;;;;;6185702;23;20005;-76
2022/11/15 12:05:56;;;;;;;11.65;6.15;;;13.30;99.90;;;;;;6186033;23;20389;-78
2022/11/15 12:09:06;;;;;;;12.13;5.40;;;13.30;99.90;;;;;;6185834;23;20449;-77
2022/11/15 12:11:55;;;;;;;9.20;5.88;;;13.20;99.90;;;;;;6185568;23;20013;-76
2022/11/15 12:14:42;;;;;;;10.82;5.90;;;13.10;99.90;;;;;;6186121;23;20118;-76
2022/11/15 12:17:12;;;;;;;11.20;5.78;;;13.20;99.90;;;;;;6187316;23;20084;-78
2022/11/15 12:19:42;;;;;;;7.88;4.55;;;13.20;99.90;;;;;;6186171;23;20019;-78
2022/11/15 12:22:32;;;;;;;7.18;4.82;;;13.10;99.90;;;;;;6210889;23;20041;-77
2022/11/15 12:25:19;;;;;;;11.60;4.95;;;13.10;99.90;;;;;;6185823;23;20063;-77
2022/11/15 12:27:52;;;;;;;9.15;5.43;;;13.10;99.90;;;;;;6185763;23;20016;-77
2022/11/15 12:30:20;;;;;;;7.35;4.80;;;13.10;99.90;;;;;;6186007;23;20387;-75
2022/11/15 12:33:00;;;;;;;8.32;4.63;;;13.00;99.90;;;;;;6186127;23;20350;-77
2022/11/15 12:35:39;;;;;;;7.50;5.00;;;12.90;99.90;;;;;;6185857;23;20439;-78
2022/11/15 12:38:10;;;;;;;7.85;4.15;;;12.90;99.90;;;;;;6185811;23;20071;-75
2022/11/15 12:41:28;;;;;;;7.22;4.45;;;12.80;99.90;;;;;;6188243;23;20298;-76
2022/11/15 12:43:54;;;;;;;7.38;4.53;;;12.70;99.90;;;;;;6178995;23;20048;-78
2022/11/15 12:46:29;;;;;;;7.38;4.38;;;12.70;99.90;;;;;;6161110;23;20040;-76
2022/11/15 12:48:54;;;;;;;9.37;4.00;;;12.60;99.90;;;;;;6185625;23;20017;-76
2022/11/15 12:51:42;;;;;;;9.45;5.25;;;12.60;99.90;;;;;;6185377;23;20028;-77
2022/11/15 12:54:22;;;;;;;10.95;5.05;;;12.70;99.90;;;;;;6170889;23;20350;-77
2022/11/15 12:57:03;;;;;;;7.30;4.40;;;12.90;99.90;;;;;;6186654;23;20079;-76
2022/11/15 12:59:51;;;;;;;8.35;4.22;;;13.00;99.90;;;;;;6185184;23;20017;-77
2022/11/15 13:02:22;;;;;;;7.65;4.13;;;13.00;99.90;;;;;;6185086;23;20406;-77
2022/11/15 13:04:48;;;;;;;7.22;3.83;;;12.90;99.90;;;;;;6185608;23;20012;-76
2022/11/15 13:07:32;;;;;;;5.53;3.03;;;12.90;99.90;;;;;;6185390;23;20087;-77
2022/11/15 13:09:58;;;;;;;6.60;3.40;;;12.90;99.90;;;;;;6185065;23;20123;-77
2022/11/15 13:12:27;;;;;;;7.38;2.85;;;13.00;99.90;;;;;;6185094;23;20052;-78
2022/11/15 13:14:59;;;;;;;7.03;3.10;;;13.00;99.90;;;;;;6184849;23;20021;-77
2022/11/15 13:17:29;;;;;;;8.15;3.35;;;13.10;99.90;;;;;;6184853;23;20079;-76
2022/11/15 13:20:07;;;;;;;9.90;4.00;;;13.20;99.90;;;;;;6186291;23;20044;-77
2022/11/15 13:22:50;;;;;;;7.47;3.45;;;13.20;99.90;;;;;;6183964;23;20013;-77
2022/11/15 13:25:44;;;;;;;5.55;2.85;;;13.30;99.90;;;;;;6184582;23;20012;-77
2022/11/15 13:28:09;;;;;;;10.10;3.03;;;13.30;99.90;;;;;;6184728;23;20020;-76
2022/11/15 13:30:36;;;;;;;6.25;3.00;;;13.40;99.90;;;;;;6184918;23;20468;-76
2022/11/15 13:33:19;;;;;;;5.50;3.08;;;13.50;99.90;;;;;;6184737;23;20447;-77
2022/11/15 13:35:50;;;;;;;5.50;2.50;;;13.60;99.90;;;;;;6184762;23;20092;-77
2022/11/15 13:38:26;;;;;;;6.57;2.72;;;13.80;99.90;;;;;;6210437;23;20021;-75
2022/11/15 13:40:52;;;;;;;6.80;3.03;;;13.70;99.90;;;;;;6186149;23;20020;-77
2022/11/15 13:43:38;;;;;;;4.47;2.47;;;13.70;99.90;;;;;;6184688;23;20371;-76
2022/11/15 13:46:09;;;;;;;;;;;13.60;99.90;;;;;;6186352;23;20044;-76
2022/11/15 13:48:35;;;;;;;6.43;2.70;;;13.50;99.90;;;;;;6184676;23;19912;-77
2022/11/15 13:51:04;;;;;;;3.97;2.15;;;13.40;99.90;;;;;;6184569;23;20016;-74
2022/11/15 13:53:33;;;;;;;4.68;2.30;;;13.40;99.90;;;;;;6184824;23;20016;-77
2022/11/15 13:55:59;;;;;;;4.53;2.22;;;13.30;99.90;;;;;;6186664;23;20059;-77
2022/11/15 13:58:25;;;;;;;5.05;2.30;;;13.20;99.90;;;;;;6184514;23;20024;-77
2022/11/15 14:01:03;;;;;;;4.15;2.15;;;13.10;99.90;;;;;;6184084;23;20013;-77
2022/11/15 14:03:41;;;;;;;4.70;2.30;;;13.00;99.90;;;;;;6184641;23;20434;-79
2022/11/15 14:06:15;;;;;;;4.45;1.88;;;13.00;99.90;;;;;;6184036;23;20101;-78
2022/11/15 14:09:01;;;;;;;5.47;2.00;;;12.90;99.90;;;;;;6184585;23;20013;-77
2022/11/15 14:11:27;;;;;;;4.40;1.75;;;12.80;99.90;;;;;;6184478;23;20021;-78
2022/11/15 14:14:20;;;;;;;4.57;1.50;;;12.80;99.90;;;;;;6159699;23;20020;-78
2022/11/15 14:16:52;;;;;;;2.80;1.70;;;12.70;99.90;;;;;;6179509;23;20097;-78
2022/11/15 14:19:20;;;;;;;3.65;1.67;;;12.60;99.90;;;;;;6186118;23;20013;-78
2022/11/15 14:22:28;;;;;;;4.03;1.55;;;12.50;99.90;;;;;;6184153;23;20017;-78
2022/11/15 14:25:12;;;;;;;4.80;1.70;;;12.50;99.90;;;;;;6159596;23;20470;-76
2022/11/15 14:27:38;;;;;;;3.45;1.80;;;12.40;99.90;;;;;;6184190;23;20096;-78
2022/11/15 14:30:05;;;;;;;4.75;1.67;;;12.30;99.90;;;;;;6183956;23;20325;-77
2022/11/15 14:32:47;;;;;;;4.78;1.50;;;12.30;99.90;;;;;;6185697;23;20013;-80
2022/11/15 14:35:18;;;;;;;20.83;2.55;;;12.30;99.90;;;;;;6208548;23;20017;-80
2022/11/15 14:37:44;;;;;;;4.82;1.42;;;12.20;99.90;;;;;;6182755;23;20020;-79
2022/11/15 14:40:14;;;;;;;6.72;1.67;;;12.20;99.90;;;;;;6182599;23;20017;-80
2022/11/15 14:42:40;;;;;;;9.55;1.65;;;12.20;99.90;;;;;;6183443;23;20013;-77
2022/11/15 14:45:17;;;;;;;2.67;1.23;;;12.10;99.90;;;;;;6184096;23;20435;-78
2022/11/15 14:47:44;;;;;;;4.20;1.52;;;12.10;99.90;;;;;;6184864;23;20013;-78
2022/11/15 14:50:24;;;;;;;4.10;1.30;;;12.00;99.90;;;;;;6159247;23;20453;-77
2022/11/15 14:53:00;;;;;;;;;;;;;;;;;;;;;
2022/11/15 14:55:34;;;;;;;2.42;1.20;;;11.90;99.90;;;;;;6185455;23;20300;-78
2022/11/15 14:58:02;;;;;;;3.03;1.20;;;11.90;99.90;;;;;;6184037;23;20439;-78
2022/11/15 15:00:30;;;;;;;3.58;1.30;;;11.80;99.90;;;;;;6186236;23;20016;-80
2022/11/15 15:02:55;;;;;;;4.57;1.40;;;11.80;99.90;;;;;;6184574;23;20017;-78
2022/11/15 15:05:24;;;;;;;5.63;1.50;;;11.70;99.90;;;;;;6184023;23;20019;-80
2022/11/15 15:07:52;;;;;;;4.20;1.35;;;11.70;99.90;;;;;;6184195;23;20024;-79
2022/11/15 15:10:18;;;;;;;4.05;1.33;;;11.70;99.90;;;;;;6184278;23;20045;-79
2022/11/15 15:12:44;;;;;;;5.15;1.48;;;11.60;99.90;;;;;;6184587;23;20013;-78
2022/11/15 15:15:16;;;;;;;3.50;1.50;;;11.60;99.90;;;;;;6184446;23;20012;-77
2022/11/15 15:17:42;;;;;;;3.42;1.48;;;11.60;99.90;;;;;;6209324;23;20435;-78
2022/11/15 15:20:09;;;;;;;4.95;1.48;;;11.60;99.90;;;;;;6183941;23;20344;-79
2022/11/15 15:22:35;;;;;;;5.82;1.70;;;11.50;99.90;;;;;;6186305;23;20074;-78
2022/11/15 15:25:02;;;;;;;17.90;2.30;;;11.50;99.90;;;;;;6183976;23;20009;-80
2022/11/15 15:27:27;;;;;;;4.28;1.40;;;11.40;99.90;;;;;;6183650;23;20040;-77
2022/11/15 15:29:53;;;;;;;4.28;1.55;;;11.40;99.90;;;;;;6182657;23;20339;-79
2022/11/15 15:32:19;;;;;;;5.72;2.10;;;11.40;99.90;;;;;;6183349;23;20024;-78
2022/11/15 15:34:44;;;;;;;6.63;1.90;;;11.30;99.90;;;;;;6184393;23;20021;-78
2022/11/15 15:37:24;;;;;;;7.80;2.42;;;11.20;99.90;;;;;;6184370;23;20020;-77
2022/11/15 15:39:54;;;;;;;7.35;2.40;;;11.20;99.90;;;;;;6186181;23;20088;-76
2022/11/15 15:42:20;;;;;;;7.07;2.45;;;11.10;99.90;;;;;;6184188;23;20084;-77
2022/11/15 15:44:47;;;;;;;5.53;2.85;;;11.10;99.90;;;;;;6187132;23;20075;-79
2022/11/15 15:47:16;;;;;;;6.57;3.13;;;11.10;99.90;;;;;;6161226;23;20071;-77
2022/11/15 15:49:43;;;;;;;6.65;3.13;;;11.00;99.90;;;;;;6185848;23;20072;-79
2022/11/15 15:52:09;;;;;;;6.63;3.38;;;11.00;99.90;;;;;;6187672;23;20013;-78
2022/11/15 15:54:35;;;;;;;8.65;3.60;;;11.00;99.90;;;;;;6187943;23;20009;-78
2022/11/15 15:57:00;;;;;;;6.53;3.75;;;10.90;99.90;;;;;;6187339;23;20017;-79
2022/11/15 15:59:26;;;;;;;7.28;3.95;;;10.90;99.90;;;;;;6186005;23;20043;-77
2022/11/15 16:01:52;;;;;;;7.93;4.72;;;10.90;99.90;;;;;;6185551;23;20012;-78
2022/11/15 16:04:17;;;;;;;10.88;4.70;;;10.90;99.90;;;;;;6185650;23;20284;-78
2022/11/15 16:06:44;;;;;;;7.45;4.53;;;10.90;99.90;;;;;;6186366;23;20443;-77
2022/11/15 16:09:14;;;;;;;8.30;5.18;;;10.90;99.90;;;;;;6186955;23;20378;-76
2022/11/15 16:11:41;;;;;;;7.80;4.78;;;10.90;99.90;;;;;;6185753;23;20112;-78
2022/11/15 16:14:08;;;;;;;6.45;4.22;;;10.90;99.90;;;;;;6185653;23;20083;-79
2022/11/15 16:16:34;;;;;;;8.43;4.85;;;10.90;99.90;;;;;;6186963;23;20335;-78
2022/11/15 16:19:00;;;;;;;7.28;4.80;;;11.00;99.90;;;;;;6185711;23;20086;-78
2022/11/15 16:21:27;;;;;;;9.70;5.00;;;11.00;99.90;;;;;;6185858;23;20092;-77
2022/11/15 16:23:52;;;;;;;7.45;4.72;;;11.00;99.90;;;;;;6184131;23;20017;-78
2022/11/15 16:26:28;;;;;;;7.38;4.72;;;11.10;99.90;;;;;;6185636;23;20009;-78
2022/11/15 16:28:54;;;;;;;9.07;4.70;;;11.10;99.90;;;;;;6159412;23;20021;-79
2022/11/15 16:31:22;;;;;;;6.60;4.82;;;11.10;99.90;;;;;;6183707;23;20017;-78
2022/11/15 16:33:48;;;;;;;6.85;4.30;;;11.10;99.90;;;;;;6186352;23;20016;-78
2022/11/15 16:36:25;;;;;;;6.70;4.22;;;11.20;99.90;;;;;;6184991;23;20383;-78
2022/11/15 16:38:52;;;;;;;8.77;4.18;;;11.20;99.90;;;;;;6186993;23;20027;-77
2022/11/15 16:41:18;;;;;;;8.15;3.90;;;11.20;99.90;;;;;;6185124;23;20063;-78
2022/11/15 16:43:48;;;;;;;5.82;3.50;;;11.20;99.90;;;;;;6210548;23;20092;-78
2022/11/15 16:46:19;;;;;;;9.95;4.35;;;11.30;99.90;;;;;;6185378;23;20135;-77
2022/11/15 16:48:45;;;;;;;6.07;3.20;;;11.30;99.90;;;;;;6186803;23;20016;-75
2022/11/15 16:51:11;;;;;;;9.57;3.40;;;11.30;99.90;;;;;;6185065;23;20021;-79
2022/11/15 16:53:37;;;;;;;5.88;2.88;;;11.30;99.90;;;;;;6160980;23;20017;-77
2022/11/15 16:56:03;;;;;;;7.07;3.30;;;11.30;99.90;;;;;;6210079;23;20017;-78
2022/11/15 16:58:29;;;;;;;5.10;2.70;;;11.30;99.90;;;;;;6187018;23;20045;-77
2022/11/15 17:00:55;;;;;;;3.63;2.25;;;11.30;99.90;;;;;;6184920;23;20013;-77